createdAt,value
2018-03-14T00:00:51.917Z,94204.68
2018-03-14T00:03:19.286Z,94200.75
2018-03-14T00:05:46.643Z,94194.78
2018-03-14T00:08:14.054Z,94206.38
2018-03-14T00:10:41.439Z,94204.94
2018-03-14T00:13:08.810Z,94206.44
2018-03-14T00:15:36.172Z,94213.95
2018-03-14T00:18:03.531Z,94224.14
2018-03-14T00:20:30.896Z,94223.95
2018-03-14T00:22:58.302Z,94215.40
2018-03-14T00:25:25.696Z,94218.23
2018-03-14T00:27:53.060Z,94214.17
2018-03-14T00:30:20.536Z,94197.30
2018-03-14T00:32:47.910Z,94202.33
2018-03-14T00:35:15.291Z,94207.01
2018-03-14T00:37:42.642Z,94196.57
2018-03-14T00:40:10.000Z,94194.66
2018-03-14T00:42:37.381Z,94192.48
2018-03-14T00:45:04.778Z,94196.89
2018-03-14T00:47:32.144Z,94199.34
2018-03-14T00:49:59.486Z,94198.05
2018-03-14T00:52:26.930Z,94198.11
2018-03-14T00:54:54.310Z,94194.72
2018-03-14T00:57:21.729Z,94204.97
2018-03-14T00:59:49.095Z,94201.73
2018-03-14T01:02:16.446Z,94194.47
2018-03-14T01:04:43.897Z,94199.63
2018-03-14T01:07:11.438Z,94195.81
2018-03-14T01:09:38.703Z,94189.88
2018-03-14T01:12:06.130Z,94194.34
2018-03-14T01:14:33.712Z,94195.63
2018-03-14T01:17:01.111Z,94191.61
2018-03-14T01:19:28.482Z,94195.41
2018-03-14T01:21:55.862Z,94196.16
2018-03-14T01:24:23.542Z,94194.41
2018-03-14T01:26:50.971Z,94199.34
2018-03-14T01:29:18.334Z,94193.59
2018-03-14T01:31:45.678Z,94197.92
2018-03-14T01:34:13.046Z,94190.41
2018-03-14T01:36:40.459Z,94192.98
2018-03-14T01:39:07.854Z,94190.54
2018-03-14T01:41:35.242Z,94184.09
2018-03-14T01:44:02.634Z,94185.04
2018-03-14T01:46:29.994Z,94189.88
2018-03-14T01:48:57.358Z,94191.58
2018-03-14T01:51:24.781Z,94187.08
2018-03-14T01:53:52.137Z,94185.13
2018-03-14T01:56:19.518Z,94178.75
2018-03-14T01:58:47.476Z,94186.55
2018-03-14T02:01:14.888Z,94173.88
2018-03-14T02:03:42.290Z,94179.86
2018-03-14T02:06:09.657Z,94178.56
2018-03-14T02:08:37.030Z,94179.66
2018-03-14T02:11:04.390Z,94184.63
2018-03-14T02:13:31.806Z,94185.00
2018-03-14T02:15:59.155Z,94187.11
2018-03-14T02:18:26.517Z,94182.86
2018-03-14T02:20:53.902Z,94184.63
2018-03-14T02:23:21.308Z,94178.08
2018-03-14T02:25:48.682Z,94189.50
2018-03-14T02:28:16.075Z,94198.92
2018-03-14T02:30:43.493Z,94189.37
2018-03-14T02:33:10.871Z,94190.94
2018-03-14T02:35:38.242Z,94190.78
2018-03-14T02:38:05.642Z,94174.53
2018-03-14T02:40:33.024Z,94184.63
2018-03-14T02:43:00.410Z,94195.66
2018-03-14T02:45:27.780Z,94196.75
2018-03-14T02:47:55.118Z,94197.84
2018-03-14T02:50:22.536Z,94195.46
2018-03-14T02:52:49.932Z,94191.59
2018-03-14T02:55:17.306Z,94194.30
2018-03-14T02:57:44.708Z,94197.22
2018-03-14T03:00:12.051Z,94198.04
2018-03-14T03:02:39.472Z,94201.69
2018-03-14T03:05:06.830Z,94204.80
2018-03-14T03:07:34.232Z,94201.09
2018-03-14T03:10:01.667Z,94205.42
2018-03-14T03:12:29.054Z,94207.47
2018-03-14T03:14:56.436Z,94208.95
2018-03-14T03:17:23.804Z,94212.53
2018-03-14T03:19:51.859Z,94203.10
2018-03-14T03:22:19.227Z,94205.55
2018-03-14T03:24:46.582Z,94201.91
2018-03-14T03:27:14.010Z,94199.74
2018-03-14T03:29:41.381Z,94200.22
2018-03-14T03:32:08.719Z,94209.02
2018-03-14T03:34:36.102Z,94197.34
2018-03-14T03:37:03.455Z,94208.95
2018-03-14T03:39:30.849Z,94213.75
2018-03-14T03:41:58.213Z,94214.92
2018-03-14T03:44:25.558Z,94209.36
2018-03-14T03:46:52.910Z,94205.77
2018-03-14T03:49:20.275Z,94205.38
2018-03-14T03:51:47.769Z,94201.56
2018-03-14T03:54:15.200Z,94207.19
2018-03-14T03:56:42.550Z,94199.53
2018-03-14T03:59:09.891Z,94204.36
2018-03-14T04:01:37.252Z,94201.34
2018-03-14T04:04:04.670Z,94206.44
2018-03-14T04:06:32.050Z,94207.31
2018-03-14T04:08:59.430Z,94218.64
2018-03-14T04:11:27.042Z,94213.61
2018-03-14T04:13:54.445Z,94204.99
2018-03-14T04:16:21.890Z,94207.85
2018-03-14T04:18:49.230Z,94217.00
2018-03-14T04:21:16.634Z,94220.05
2018-03-14T04:23:44.005Z,94211.31
2018-03-14T04:26:11.468Z,94218.41
2018-03-14T04:28:38.822Z,94214.70
2018-03-14T04:31:06.202Z,94204.68
2018-03-14T04:33:33.628Z,94208.52
2018-03-14T04:36:01.155Z,94218.13
2018-03-14T04:38:28.519Z,94222.56
2018-03-14T04:40:55.886Z,94212.94
2018-03-14T04:43:23.268Z,94213.48
2018-03-14T04:45:50.717Z,94217.06
2018-03-14T04:48:18.111Z,94220.86
2018-03-14T04:50:45.477Z,94216.72
2018-03-14T04:53:12.870Z,94215.30
2018-03-14T04:55:40.225Z,94202.23
2018-03-14T04:58:07.604Z,94217.13
2018-03-14T05:00:35.001Z,94223.45
2018-03-14T05:03:02.402Z,94223.91
2018-03-14T05:05:29.773Z,94226.15
2018-03-14T05:07:57.253Z,94220.93
2018-03-14T05:10:24.591Z,94225.27
2018-03-14T05:12:52.002Z,94217.98
2018-03-14T05:15:19.435Z,94221.69
2018-03-14T05:17:46.812Z,94223.70
2018-03-14T05:20:14.273Z,94229.42
2018-03-14T05:22:41.675Z,94229.07
2018-03-14T05:25:09.079Z,94231.65
2018-03-14T05:27:36.501Z,94243.69
2018-03-14T05:30:03.902Z,94244.56
2018-03-14T05:32:31.289Z,94246.67
2018-03-14T05:34:59.229Z,94242.62
2018-03-14T05:37:26.708Z,94244.82
2018-03-14T05:39:59.116Z,94227.22
2018-03-14T05:42:28.041Z,94245.11
2018-03-14T05:44:55.422Z,94239.70
2018-03-14T05:50:06.402Z,94251.20
2018-03-14T05:52:34.882Z,94250.67
2018-03-14T05:55:02.305Z,94257.90
2018-03-14T05:57:29.694Z,94251.93
2018-03-14T05:59:57.104Z,94256.02
2018-03-14T06:02:24.481Z,94262.42
2018-03-14T06:04:51.860Z,94259.66
2018-03-14T06:07:19.237Z,94266.70
2018-03-14T06:09:46.720Z,94254.47
2018-03-14T06:12:14.107Z,94266.67
2018-03-14T06:14:41.550Z,94273.84
2018-03-14T06:17:08.973Z,94267.80
2018-03-14T06:19:36.531Z,94277.96
2018-03-14T06:22:03.921Z,94285.86
2018-03-14T06:24:31.296Z,94282.99
2018-03-14T06:27:00.552Z,94288.97
2018-03-14T06:29:28.096Z,94286.61
2018-03-14T06:32:02.354Z,94293.94
2018-03-14T06:34:32.104Z,94290.34
2018-03-14T06:36:59.627Z,94302.80
2018-03-14T06:39:27.005Z,94292.05
2018-03-14T06:41:54.387Z,94291.41
2018-03-14T06:44:21.857Z,94292.98
2018-03-14T06:46:49.281Z,94297.23
2018-03-14T06:49:16.732Z,94300.25
2018-03-14T06:51:44.099Z,94301.34
2018-03-14T06:54:12.525Z,94310.97
2018-03-14T06:56:40.348Z,94314.42
2018-03-14T06:59:07.883Z,94313.33
2018-03-14T07:01:35.611Z,94311.23
2018-03-14T07:04:08.129Z,94315.07
2018-03-14T07:06:35.748Z,94318.59
2018-03-14T07:09:03.192Z,94319.38
2018-03-14T07:11:30.857Z,94321.42
2018-03-14T07:13:58.430Z,94317.84
2018-03-14T07:16:25.888Z,94304.53
2018-03-14T07:18:53.360Z,94314.19
2018-03-14T07:21:20.775Z,94294.94
2018-03-14T07:23:51.506Z,94308.81
2018-03-14T07:26:19.142Z,94308.06
2018-03-14T07:28:46.626Z,94310.98
2018-03-14T07:31:14.243Z,94317.91
2018-03-14T07:33:41.744Z,94334.67
2018-03-14T07:36:09.160Z,94328.28
2018-03-14T07:38:36.720Z,94333.56
2018-03-14T07:41:04.241Z,94323.14
2018-03-14T07:43:33.464Z,94316.91
2018-03-14T07:46:03.708Z,94331.22
2018-03-14T07:48:31.666Z,94327.59
2018-03-14T07:51:00.341Z,94307.30
2018-03-14T07:53:28.347Z,94330.27
2018-03-14T07:55:56.154Z,94333.14
2018-03-14T07:58:24.268Z,94327.28
2018-03-14T08:00:52.438Z,94316.83
2018-03-14T08:03:22.421Z,94327.05
2018-03-14T08:05:50.070Z,94317.06
2018-03-14T08:08:20.120Z,94327.89
2018-03-14T08:10:47.872Z,94322.56
2018-03-14T08:13:15.673Z,94322.09
2018-03-14T08:15:44.589Z,94320.33
2018-03-14T08:18:12.149Z,94315.62
2018-03-14T08:20:39.625Z,94326.25
2018-03-14T08:23:07.110Z,94316.56
2018-03-14T08:25:35.346Z,94326.34
2018-03-14T08:28:04.896Z,94329.01
2018-03-14T08:30:32.644Z,94329.76
2018-03-14T10:43:16.906Z,94285.56
2018-03-14T10:45:44.416Z,94275.42
2018-03-14T10:48:11.847Z,94279.67
2018-03-14T10:50:39.273Z,94269.70
2018-03-14T10:53:06.677Z,94276.41
2018-03-14T10:55:34.123Z,94274.09
2018-03-14T10:58:01.664Z,94272.16
2018-03-14T11:00:29.129Z,94265.92
2018-03-14T11:02:56.716Z,94263.64
2018-03-14T11:05:24.324Z,94257.18
2018-03-14T11:07:51.737Z,94261.27
2018-03-14T11:10:19.531Z,94232.65
2018-03-14T11:12:47.178Z,94260.27
2018-03-14T11:15:14.584Z,94265.14
2018-03-14T11:17:42.025Z,94240.48
2018-03-14T11:20:09.460Z,94246.32
2018-03-14T11:22:36.823Z,94238.80
2018-03-14T11:25:04.735Z,94232.41
2018-03-14T11:27:32.273Z,94247.04
2018-03-14T11:29:59.805Z,94237.88
2018-03-14T11:32:27.414Z,94229.58
2018-03-14T11:34:54.814Z,94220.94
2018-03-14T11:37:22.193Z,94223.49
2018-03-14T11:39:49.601Z,94221.82
2018-03-14T11:42:16.978Z,94231.79
2018-03-14T11:44:44.409Z,94217.51
2018-03-14T11:47:11.894Z,94223.35
2018-03-14T11:49:39.261Z,94201.69
2018-03-14T11:52:06.675Z,94225.76
2018-03-14T11:54:34.153Z,94194.03
2018-03-14T11:57:01.560Z,94195.22
2018-03-14T11:59:30.273Z,94213.55
2018-03-14T12:01:57.807Z,94213.13
2018-03-14T12:04:25.223Z,94208.85
2018-03-14T12:06:52.756Z,94205.07
2018-03-14T12:09:22.732Z,94213.41
2018-03-14T12:11:50.384Z,94197.53
2018-03-14T12:14:17.842Z,94200.37
2018-03-14T12:16:45.205Z,94188.20
2018-03-14T12:19:12.601Z,94179.66
2018-03-14T12:21:40.039Z,94199.15
2018-03-14T12:24:07.440Z,94191.77
2018-03-14T12:26:34.897Z,94183.09
2018-03-14T12:29:02.323Z,94190.26
2018-03-14T12:31:29.774Z,94191.83
2018-03-14T12:33:57.177Z,94200.27
2018-03-14T12:36:24.596Z,94191.26
2018-03-14T12:38:51.940Z,94190.41
2018-03-14T12:41:19.310Z,94190.16
2018-03-14T12:43:46.990Z,94196.59
2018-03-14T12:46:17.307Z,94201.08
2018-03-14T12:54:44.587Z,94182.58
2018-03-14T12:57:12.681Z,94191.42
2018-03-14T12:59:40.967Z,94184.76
2018-03-14T13:02:08.336Z,94192.82
2018-03-14T13:04:36.644Z,94191.53
2018-03-14T13:07:04.198Z,94195.53
2018-03-14T13:09:31.653Z,94179.44
2018-03-14T13:12:00.088Z,94179.63
